createdAt,value
2019-04-14T00:00:35.834Z,17.87
2019-04-14T00:03:08.785Z,19.43
2019-04-14T00:05:38.525Z,18.83
2019-04-14T00:08:07.237Z,33.60
2019-04-14T00:10:35.717Z,20.37
2019-04-14T00:13:04.655Z,18.93
2019-04-14T00:15:40.474Z,23.57
2019-04-14T00:18:03.724Z,19.63
2019-04-14T00:20:32.307Z,19.27
2019-04-14T00:23:00.830Z,15.73
2019-04-14T00:25:30.461Z,20.37
2019-04-14T00:27:59.108Z,23.97
2019-04-14T00:30:27.664Z,17.90
2019-04-14T00:33:01.807Z,16.80
2019-04-14T00:35:47.261Z,18.17
2019-04-14T00:38:17.551Z,18.07
2019-04-14T00:40:47.706Z,19.40
2019-04-14T00:43:26.805Z,23.27
2019-04-14T00:45:59.710Z,20.17
2019-04-14T00:48:29.908Z,19.10
2019-04-14T00:50:58.716Z,22.23
2019-04-14T00:53:27.505Z,18.30
2019-04-14T00:55:56.058Z,17.60
2019-04-14T00:58:25.729Z,21.73
2019-04-14T01:00:54.349Z,17.83
2019-04-14T01:03:22.827Z,21.30
2019-04-14T01:05:52.511Z,18.57
2019-04-14T01:08:21.201Z,19.53
2019-04-14T01:10:49.842Z,20.57
2019-04-14T01:13:18.321Z,18.83
2019-04-14T01:15:54.810Z,17.07
2019-04-14T01:18:17.053Z,21.47
2019-04-14T01:20:45.536Z,19.27
2019-04-14T01:23:15.107Z,19.20
2019-04-14T01:25:43.697Z,18.77
2019-04-14T01:28:12.237Z,17.17
2019-04-14T01:30:41.546Z,19.93
2019-04-14T01:33:10.121Z,19.20
2019-04-14T01:35:39.917Z,20.43
2019-04-14T01:38:08.483Z,19.17
2019-04-14T01:40:38.065Z,18.70
2019-04-14T01:43:08.000Z,22.73
2019-04-14T01:45:36.624Z,21.23
2019-04-14T01:48:06.005Z,21.33
2019-04-14T01:50:36.581Z,18.90
2019-04-14T01:53:07.575Z,20.43
2019-04-14T01:55:50.523Z,19.67
2019-04-14T01:58:20.835Z,22.77
2019-04-14T02:00:51.322Z,18.57
2019-04-14T02:03:19.790Z,21.30
2019-04-14T02:05:49.570Z,18.63
2019-04-14T02:08:18.247Z,21.67
2019-04-14T02:10:47.873Z,18.70
2019-04-14T02:13:16.396Z,20.13
2019-04-14T02:15:46.201Z,20.87
2019-04-14T02:18:16.282Z,21.70
2019-04-14T02:20:44.997Z,18.67
2019-04-14T02:23:14.581Z,24.37
2019-04-14T02:25:43.300Z,20.43
2019-04-14T02:28:11.866Z,20.03
2019-04-14T02:30:49.572Z,21.93
2019-04-14T02:33:41.485Z,19.57
2019-04-14T02:36:14.098Z,19.47
2019-04-14T02:41:14.133Z,18.90
2019-04-14T02:46:05.943Z,17.90
2019-04-14T02:48:48.000Z,19.40
2019-04-14T02:51:14.382Z,16.23
2019-04-14T02:53:41.616Z,16.70
2019-04-14T03:01:14.771Z,19.63
2019-04-14T03:03:39.203Z,18.80
2019-04-14T03:06:27.053Z,16.00
2019-04-14T03:08:45.696Z,18.73
2019-04-14T03:11:17.455Z,21.07
2019-04-14T03:16:17.848Z,16.93
2019-04-14T03:18:47.189Z,17.23
2019-04-14T03:21:21.310Z,18.03
2019-04-14T03:23:57.887Z,17.37
2019-04-14T03:26:18.080Z,17.53
2019-04-14T03:29:10.605Z,18.37
2019-04-14T03:34:18.346Z,18.20
2019-04-14T03:37:07.928Z,19.73
2019-04-14T03:38:58.815Z,18.47
2019-04-14T03:41:41.228Z,19.37
2019-04-14T03:43:50.694Z,19.43
2019-04-14T03:46:41.642Z,18.43
2019-04-14T03:48:58.531Z,17.73
2019-04-14T03:51:40.439Z,19.73
2019-04-14T03:53:53.490Z,18.20
2019-04-14T03:56:07.135Z,19.47
2019-04-14T03:58:33.950Z,18.80
2019-04-14T04:01:02.408Z,20.00
2019-04-14T04:03:30.928Z,18.53
2019-04-14T04:06:00.687Z,19.37
2019-04-14T04:08:29.285Z,18.33
2019-04-14T04:11:02.034Z,19.20
2019-04-14T04:13:30.574Z,19.03
2019-04-14T04:16:00.693Z,20.50
2019-04-14T04:18:30.903Z,17.60
2019-04-14T04:21:18.330Z,22.57
2019-04-14T04:23:55.343Z,18.90
2019-04-14T04:26:25.753Z,19.73
2019-04-14T04:29:02.790Z,18.80
2019-04-14T04:31:33.085Z,21.13
2019-04-14T04:34:03.385Z,19.03
2019-04-14T04:36:39.873Z,20.47
2019-04-14T04:39:25.778Z,18.87
2019-04-14T04:41:54.363Z,19.30
2019-04-14T04:44:22.851Z,19.40
2019-04-14T04:46:52.623Z,19.43
2019-04-14T04:49:25.620Z,18.63
2019-04-14T04:51:51.514Z,18.97
2019-04-14T04:54:21.050Z,21.03
2019-04-14T04:56:49.655Z,20.30
2019-04-14T04:59:19.146Z,20.97
2019-04-14T05:01:47.768Z,20.23
2019-04-14T05:04:17.394Z,23.63
2019-04-14T05:07:01.740Z,18.83
2019-04-14T05:09:39.135Z,20.17
2019-04-14T05:12:28.369Z,20.13
2019-04-14T05:15:01.363Z,16.73
2019-04-14T05:17:34.750Z,18.47
2019-04-14T05:20:03.381Z,16.77
2019-04-14T05:22:33.177Z,18.30
2019-04-14T05:25:01.866Z,16.73
2019-04-14T05:27:30.346Z,17.47
2019-04-14T05:29:58.836Z,19.00
2019-04-14T05:32:28.358Z,18.33
2019-04-14T05:34:57.010Z,17.50
2019-04-14T05:37:25.490Z,18.00
2019-04-14T05:39:54.835Z,18.17
2019-04-14T05:42:25.647Z,18.27
2019-04-14T05:44:53.704Z,16.73
2019-04-14T05:47:22.187Z,17.13
2019-04-14T05:49:53.498Z,15.93
2019-04-14T05:52:20.915Z,17.53
2019-04-14T05:54:49.397Z,15.67
2019-04-14T05:57:17.873Z,15.70
2019-04-14T05:59:46.351Z,16.00
2019-04-14T06:02:15.889Z,16.10
2019-04-14T06:04:44.535Z,14.37
2019-04-14T06:07:13.036Z,15.90
2019-04-14T06:09:41.523Z,14.57
2019-04-14T06:12:10.037Z,15.33
2019-04-14T06:14:38.525Z,14.77
2019-04-14T06:17:07.033Z,14.10
2019-04-14T06:19:38.039Z,14.97
2019-04-14T06:22:05.741Z,11.53
2019-04-14T06:24:34.220Z,13.93
2019-04-14T06:27:02.711Z,12.40
2019-04-14T06:29:31.214Z,13.03
2019-04-14T06:32:03.929Z,11.20
2019-04-14T06:34:36.733Z,10.67
2019-04-14T06:37:09.559Z,10.67
2019-04-14T06:39:39.674Z,10.73
2019-04-14T06:42:08.192Z,9.60
2019-04-14T06:44:36.671Z,11.20
2019-04-14T06:47:05.168Z,13.53
2019-04-14T06:49:33.651Z,11.97
2019-04-14T06:52:02.197Z,10.27
2019-04-14T06:54:30.622Z,10.40
2019-04-14T06:56:59.126Z,11.17
2019-04-14T06:59:27.586Z,10.43
2019-04-14T07:01:56.079Z,10.47
2019-04-14T07:04:24.552Z,10.90
2019-04-14T07:06:53.070Z,11.20
2019-04-14T07:09:21.550Z,11.33
2019-04-14T07:11:50.032Z,12.67
2019-04-14T07:14:18.555Z,11.53
2019-04-14T07:16:47.055Z,12.60
2019-04-14T07:19:15.590Z,14.53
2019-04-14T07:21:44.057Z,13.40
2019-04-14T07:24:12.606Z,13.90
2019-04-14T07:26:41.529Z,12.03
2019-04-14T07:29:10.020Z,14.27
2019-04-14T07:31:43.229Z,14.40
2019-04-14T07:34:29.790Z,15.77
2019-04-14T07:36:59.935Z,14.63
2019-04-14T07:39:32.792Z,14.30
2019-04-14T07:42:03.110Z,15.03
2019-04-14T07:44:35.915Z,16.23
2019-04-14T07:47:23.898Z,14.77
2019-04-14T07:50:14.959Z,14.57
2019-04-14T07:52:41.786Z,14.87
2019-04-14T07:55:11.928Z,18.37
2019-04-14T07:57:44.896Z,15.57
2019-04-14T08:00:15.088Z,18.20
2019-04-14T08:02:50.944Z,19.73
2019-04-14T08:05:23.516Z,16.90
2019-04-14T08:07:52.020Z,17.47
2019-04-14T08:10:20.485Z,16.13
2019-04-14T08:12:48.993Z,16.60
2019-04-14T08:15:17.472Z,18.83
2019-04-14T08:17:45.979Z,19.70
2019-04-14T08:20:26.822Z,18.90
2019-04-14T08:22:45.703Z,18.90
2019-04-14T08:25:14.187Z,17.10
2019-04-14T08:27:42.667Z,17.33
2019-04-14T08:30:11.321Z,18.00
2019-04-14T08:32:39.827Z,15.57
2019-04-14T08:35:08.653Z,17.77
2019-04-14T08:37:37.122Z,18.80
2019-04-14T08:40:06.082Z,17.90
2019-04-14T08:42:48.176Z,18.47
2019-04-14T08:45:21.091Z,20.40
2019-04-14T08:48:03.260Z,17.90
2019-04-14T08:50:51.629Z,19.50
2019-04-14T08:53:38.039Z,19.40
2019-04-14T08:56:23.157Z,18.07
2019-04-14T08:59:08.591Z,20.63
2019-04-14T09:01:41.470Z,18.33
2019-04-14T09:04:14.346Z,18.13
2019-04-14T09:06:47.222Z,18.67
2019-04-14T09:09:20.493Z,19.27
2019-04-14T09:11:56.292Z,20.17
2019-04-14T09:14:24.787Z,17.93
2019-04-14T09:16:53.303Z,18.83
2019-04-14T09:19:21.791Z,19.50
2019-04-14T09:21:50.302Z,19.10
2019-04-14T09:24:18.787Z,21.73
2019-04-14T09:26:47.295Z,19.20
2019-04-14T09:29:15.776Z,23.27
2019-04-14T09:31:44.276Z,20.80
2019-04-14T09:34:12.749Z,20.53
2019-04-14T09:36:41.261Z,19.73
2019-04-14T09:39:09.721Z,18.97
2019-04-14T09:41:38.222Z,19.77
2019-04-14T09:44:06.685Z,19.93
2019-04-14T09:46:35.200Z,18.83
2019-04-14T09:49:03.675Z,18.73
2019-04-14T09:51:32.181Z,18.40
2019-04-14T09:54:00.656Z,19.53
2019-04-14T09:56:29.253Z,21.83
2019-04-14T09:58:57.798Z,17.50
2019-04-14T10:01:26.346Z,19.73
2019-04-14T10:03:54.842Z,19.10
2019-04-14T10:06:23.363Z,20.13
2019-04-14T10:08:51.932Z,20.00
2019-04-14T10:11:20.489Z,22.47
2019-04-14T10:13:48.969Z,22.13
2019-04-14T10:16:17.554Z,20.33
2019-04-14T10:18:46.034Z,23.37
2019-04-14T10:21:17.623Z,22.93
2019-04-14T10:23:44.808Z,18.57
2019-04-14T10:26:13.317Z,21.87
2019-04-14T10:28:41.833Z,19.87
2019-04-14T10:31:10.292Z,21.23
2019-04-14T10:33:38.797Z,18.97
2019-04-14T10:36:07.334Z,24.03
2019-04-14T10:38:35.822Z,18.10
2019-04-14T10:41:04.943Z,21.27
2019-04-14T10:43:33.447Z,20.80
2019-04-14T10:46:01.983Z,21.07
2019-04-14T10:48:30.446Z,21.17
2019-04-14T10:50:58.992Z,22.73
2019-04-14T10:53:27.511Z,20.43
2019-04-14T10:55:55.987Z,22.80
2019-04-14T10:58:24.496Z,20.23
2019-04-14T11:00:52.988Z,20.43
2019-04-14T11:03:21.471Z,22.17
2019-04-14T11:06:07.736Z,21.47
2019-04-14T11:08:36.311Z,21.00
2019-04-14T11:11:04.876Z,23.53
2019-04-14T11:13:33.378Z,22.63
2019-04-14T11:16:01.880Z,22.87
2019-04-14T11:18:30.419Z,20.47
2019-04-14T11:20:58.859Z,21.67
2019-04-14T11:23:27.351Z,23.43
2019-04-14T11:25:55.840Z,19.90
2019-04-14T11:28:24.394Z,24.27
2019-04-14T11:30:52.875Z,21.30
2019-04-14T11:33:23.009Z,21.40
2019-04-14T11:36:09.551Z,18.50
2019-04-14T11:38:42.183Z,20.07
2019-04-14T11:41:15.088Z,19.73
2019-04-14T11:43:43.568Z,22.07
2019-04-14T11:46:12.082Z,21.47
2019-04-14T11:48:40.523Z,19.67
2019-04-14T11:51:09.040Z,18.03
2019-04-14T11:53:37.593Z,18.63
2019-04-14T11:56:06.188Z,19.00
2019-04-14T11:58:34.668Z,20.13
2019-04-14T12:01:06.124Z,22.70
2019-04-14T12:03:41.877Z,21.93
2019-04-14T12:06:17.720Z,17.87
2019-04-14T12:08:59.768Z,20.20
2019-04-14T12:11:28.336Z,19.47
2019-04-14T12:13:56.836Z,20.37
2019-04-14T12:16:25.330Z,19.17
2019-04-14T12:18:53.810Z,16.30
2019-04-14T12:21:22.386Z,19.27
2019-04-14T12:23:50.863Z,18.57
2019-04-14T12:26:19.350Z,17.13
2019-04-14T12:28:47.825Z,17.73
2019-04-14T12:31:17.455Z,16.67
2019-04-14T12:33:46.017Z,18.50
2019-04-14T12:36:14.857Z,16.50
2019-04-14T12:38:43.345Z,17.80
2019-04-14T12:41:17.692Z,16.33
2019-04-14T12:44:04.109Z,18.10
2019-04-14T12:46:39.708Z,17.37
2019-04-14T12:49:18.598Z,16.87
2019-04-14T12:51:54.796Z,17.67
2019-04-14T12:54:23.943Z,14.43
2019-04-14T12:56:52.462Z,15.67
2019-04-14T12:59:23.440Z,14.10
2019-04-14T13:02:06.750Z,16.53
2019-04-14T13:04:35.233Z,15.57
2019-04-14T13:07:03.792Z,16.47
2019-04-14T13:09:32.250Z,15.23
2019-04-14T13:12:00.831Z,17.03
2019-04-14T13:14:29.343Z,16.93
2019-04-14T13:16:57.891Z,17.10
2019-04-14T13:19:26.439Z,17.03
2019-04-14T13:21:54.960Z,15.40
2019-04-14T13:24:23.504Z,16.10
2019-04-14T13:26:52.032Z,15.57
2019-04-14T13:29:20.515Z,15.60
2019-04-14T13:31:49.015Z,16.67
2019-04-14T13:34:17.523Z,17.87
2019-04-14T13:36:46.010Z,19.03
2019-04-14T13:39:14.582Z,19.33
2019-04-14T13:41:43.168Z,14.63
2019-04-14T13:44:11.654Z,15.00
2019-04-14T13:46:40.161Z,14.77
2019-04-14T13:49:08.667Z,14.57
2019-04-14T13:51:37.133Z,17.90
2019-04-14T13:54:05.777Z,15.07
2019-04-14T13:56:34.294Z,14.63
2019-04-14T13:59:02.819Z,17.23
2019-04-14T14:01:31.292Z,14.43
2019-04-14T14:03:59.802Z,15.53
2019-04-14T14:06:28.328Z,14.73
2019-04-14T14:08:56.847Z,13.10
2019-04-14T14:11:35.510Z,13.97
2019-04-14T14:14:05.925Z,12.73
2019-04-14T14:16:36.075Z,17.33
2019-04-14T14:19:12.644Z,12.23
2019-04-14T14:21:48.960Z,11.63
2019-04-14T14:24:34.046Z,12.10
2019-04-14T14:27:03.792Z,14.73
2019-04-14T14:29:32.305Z,13.07
2019-04-14T14:32:02.407Z,14.53
2019-04-14T14:34:30.922Z,12.83
2019-04-14T14:36:59.412Z,13.30
2019-04-14T14:39:27.919Z,15.93
2019-04-14T14:41:56.405Z,12.43
2019-04-14T14:44:26.977Z,15.77
2019-04-14T14:47:02.963Z,14.23
2019-04-14T14:49:33.108Z,16.07
2019-04-14T14:52:09.202Z,12.37
2019-04-14T14:54:37.696Z,14.60
2019-04-14T14:57:06.185Z,14.73
2019-04-14T14:59:34.697Z,12.67
2019-04-14T15:02:03.176Z,14.43
2019-04-14T15:04:31.672Z,14.87
2019-04-14T15:07:00.188Z,12.73
2019-04-14T15:09:28.692Z,12.77
2019-04-14T15:11:57.190Z,14.03
2019-04-14T15:14:25.704Z,16.10
2019-04-14T15:16:54.563Z,14.63
2019-04-14T15:19:23.071Z,12.03
2019-04-14T15:21:51.538Z,13.90
2019-04-14T15:24:20.102Z,13.90
2019-04-14T15:26:48.609Z,13.53
2019-04-14T15:29:17.101Z,13.77
2019-04-14T15:31:45.633Z,14.57
2019-04-14T15:34:14.067Z,13.57
2019-04-14T15:36:42.659Z,15.33
2019-04-14T15:39:11.434Z,17.53
2019-04-14T15:41:39.928Z,12.67
2019-04-14T15:44:08.406Z,12.97
2019-04-14T15:46:42.163Z,14.47
2019-04-14T15:49:10.653Z,11.80
2019-04-14T15:51:39.138Z,13.03
2019-04-14T15:54:07.723Z,14.73
2019-04-14T15:56:40.365Z,12.43
2019-04-14T15:59:29.416Z,13.10
2019-04-14T16:02:16.692Z,12.83
2019-04-14T16:05:02.946Z,15.70
2019-04-14T16:07:49.559Z,11.90
2019-04-14T16:10:19.759Z,13.07
2019-04-14T16:12:58.759Z,17.37
2019-04-14T16:15:28.906Z,13.20
2019-04-14T16:17:59.029Z,13.10
2019-04-14T16:20:35.164Z,13.77
2019-04-14T16:23:03.646Z,12.60
2019-04-14T16:25:36.329Z,13.77
2019-04-14T16:28:06.446Z,15.47
2019-04-14T16:30:36.743Z,12.27
2019-04-14T16:33:12.639Z,12.60
2019-04-14T16:35:41.816Z,13.47
2019-04-14T16:38:10.352Z,15.63
2019-04-14T16:40:38.888Z,14.20
2019-04-14T16:43:07.400Z,12.80
2019-04-14T16:45:35.865Z,15.73
2019-04-14T16:48:04.637Z,23.10
2019-04-14T16:50:33.245Z,14.33
2019-04-14T16:53:03.372Z,16.77
2019-04-14T16:55:42.646Z,13.73
2019-04-14T16:58:21.534Z,17.03
2019-04-14T17:00:54.677Z,14.03
2019-04-14T17:03:23.193Z,13.70
2019-04-14T17:05:51.664Z,13.47
2019-04-14T17:08:20.190Z,14.03
2019-04-14T17:10:48.680Z,15.63
2019-04-14T17:13:17.207Z,15.27
2019-04-14T17:15:50.016Z,15.73
2019-04-14T17:18:36.343Z,19.37
2019-04-14T17:21:22.569Z,13.10
2019-04-14T17:23:55.495Z,16.07
2019-04-14T17:26:41.633Z,18.20
2019-04-14T17:29:12.067Z,17.33
2019-04-14T17:31:58.482Z,16.10
2019-04-14T17:34:28.793Z,16.13
2019-04-14T17:37:17.326Z,14.40
2019-04-14T17:39:50.138Z,17.27
2019-04-14T17:42:29.281Z,15.07
2019-04-14T17:44:59.487Z,13.90
2019-04-14T17:47:38.561Z,13.10
2019-04-14T17:50:18.387Z,15.97
2019-04-14T17:52:48.533Z,14.40
2019-04-14T17:55:35.105Z,15.57
2019-04-14T17:58:08.176Z,14.37
2019-04-14T18:00:54.634Z,14.10
2019-04-14T18:03:42.531Z,13.47
2019-04-14T18:06:12.677Z,14.57
2019-04-14T18:08:59.236Z,14.43
2019-04-14T18:11:44.527Z,16.20
2019-04-14T18:14:14.643Z,13.70
2019-04-14T18:17:00.674Z,16.53
2019-04-14T18:19:34.002Z,15.20
2019-04-14T18:22:02.486Z,14.87
2019-04-14T18:24:41.668Z,13.40
2019-04-14T18:27:01.193Z,16.43
2019-04-14T18:29:34.038Z,14.10
2019-04-14T18:32:13.054Z,17.10
2019-04-14T18:34:46.191Z,18.30
2019-04-14T18:37:34.104Z,14.30
2019-04-14T18:40:04.235Z,14.13
2019-04-14T18:42:50.844Z,12.43
2019-04-14T18:45:21.111Z,14.70
2019-04-14T18:47:51.271Z,13.03
2019-04-14T18:50:33.064Z,11.93
2019-04-14T18:53:18.576Z,16.93
2019-04-14T18:55:48.663Z,12.27
2019-04-14T18:58:18.803Z,14.93
2019-04-14T19:00:51.397Z,12.93
2019-04-14T19:03:19.958Z,13.37
2019-04-14T19:05:48.432Z,15.33
2019-04-14T19:08:16.925Z,16.90
2019-04-14T19:10:47.136Z,14.30
2019-04-14T19:13:22.692Z,11.30
2019-04-14T19:16:09.239Z,10.37
2019-04-14T19:18:42.380Z,10.90
2019-04-14T19:21:12.486Z,10.50
2019-04-14T19:23:41.015Z,10.47
2019-04-14T19:26:09.468Z,10.23
2019-04-14T19:28:37.971Z,10.53
2019-04-14T19:31:06.452Z,13.80
2019-04-14T19:33:34.941Z,10.53
2019-04-14T19:36:03.421Z,12.30
2019-04-14T19:38:31.907Z,13.70
2019-04-14T19:41:00.388Z,11.27
2019-04-14T19:43:28.865Z,9.37
2019-04-14T19:45:59.499Z,10.33
2019-04-14T19:48:27.724Z,10.43
2019-04-14T19:50:56.213Z,11.40
2019-04-14T19:53:24.698Z,9.17
2019-04-14T19:55:53.191Z,12.17
2019-04-14T19:58:21.729Z,11.30
2019-04-14T20:00:50.209Z,9.00
2019-04-14T20:03:18.733Z,10.17
2019-04-14T20:05:47.220Z,8.10
2019-04-14T20:08:15.731Z,8.37
2019-04-14T20:10:44.212Z,8.73
2019-04-14T20:13:12.686Z,10.73
2019-04-14T20:15:45.769Z,7.73
2019-04-14T20:18:24.808Z,10.60
2019-04-14T20:20:54.922Z,10.67
2019-04-14T20:23:31.149Z,11.70
2019-04-14T20:26:17.721Z,9.30
2019-04-14T20:28:47.904Z,9.43
2019-04-14T20:31:27.156Z,12.30
2019-04-14T20:33:55.739Z,12.43
2019-04-14T20:36:24.228Z,12.33
2019-04-14T20:38:52.755Z,8.30
2019-04-14T20:41:21.285Z,8.00
2019-04-14T20:43:49.822Z,10.50
2019-04-14T20:46:18.351Z,9.83
2019-04-14T20:48:46.832Z,8.57
2019-04-14T20:51:15.337Z,9.23
2019-04-14T20:53:43.817Z,8.80
2019-04-14T20:56:12.400Z,8.67
2019-04-14T20:58:40.888Z,13.23
2019-04-14T21:01:11.021Z,6.93
2019-04-14T21:03:41.277Z,12.10
2019-04-14T21:06:14.219Z,9.17
2019-04-14T21:08:46.857Z,11.33
2019-04-14T21:11:17.016Z,12.40
2019-04-14T21:13:47.151Z,11.83
2019-04-14T21:16:35.338Z,12.17
2019-04-14T21:19:05.459Z,8.70
2019-04-14T21:21:44.367Z,8.87
2019-04-14T21:24:23.224Z,11.13
2019-04-14T21:26:53.410Z,9.20
2019-04-14T21:29:25.971Z,7.83
2019-04-14T21:31:56.137Z,10.20
2019-04-14T21:34:26.250Z,14.30
2019-04-14T21:37:01.941Z,11.13
2019-04-14T21:39:50.499Z,8.20
2019-04-14T21:42:19.850Z,8.57
2019-04-14T21:44:48.335Z,9.37
2019-04-14T21:47:16.865Z,11.87
2019-04-14T21:49:45.341Z,9.07
2019-04-14T21:52:18.077Z,12.13
2019-04-14T21:54:46.834Z,10.13
2019-04-14T21:57:16.985Z,11.67
2019-04-14T22:00:05.523Z,6.87
2019-04-14T22:02:50.742Z,8.17
2019-04-14T22:05:37.209Z,13.90
2019-04-14T22:08:09.992Z,13.97
2019-04-14T22:10:42.832Z,12.13
2019-04-14T22:13:11.325Z,11.20
2019-04-14T22:15:39.794Z,13.17
2019-04-14T22:18:08.358Z,9.87
2019-04-14T22:20:36.857Z,9.80
2019-04-14T22:23:07.079Z,11.50
2019-04-14T22:25:35.546Z,10.70
2019-04-14T22:28:04.123Z,9.80
2019-04-14T22:30:32.661Z,9.57
2019-04-14T22:33:01.202Z,12.33
2019-04-14T22:35:29.619Z,9.57
2019-04-14T22:37:58.190Z,10.53
2019-04-14T22:40:26.804Z,12.47
2019-04-14T22:42:55.281Z,9.47
2019-04-14T22:45:23.779Z,8.47
2019-04-14T22:47:52.258Z,9.37
2019-04-14T22:50:20.781Z,9.30
2019-04-14T22:52:49.251Z,12.30
2019-04-14T22:55:17.758Z,11.67
2019-04-14T22:57:46.238Z,10.70
2019-04-14T23:00:19.445Z,12.37
2019-04-14T23:02:49.648Z,11.57
2019-04-14T23:05:34.495Z,12.33
2019-04-14T23:08:08.956Z,13.83
2019-04-14T23:10:55.782Z,9.63
2019-04-14T23:13:34.607Z,11.37
2019-04-14T23:16:04.738Z,10.40
2019-04-14T23:18:34.864Z,9.07
2019-04-14T23:21:05.027Z,12.10
2019-04-14T23:23:51.583Z,13.57
2019-04-14T23:26:20.124Z,10.53
2019-04-14T23:28:48.585Z,12.27
2019-04-14T23:31:17.073Z,9.47
2019-04-14T23:33:45.528Z,13.50
2019-04-14T23:36:14.059Z,12.73
2019-04-14T23:38:42.535Z,11.53
2019-04-14T23:41:11.050Z,10.67
2019-04-14T23:43:39.531Z,9.67
2019-04-14T23:46:08.035Z,9.00
2019-04-14T23:48:36.502Z,12.10
2019-04-14T23:51:04.984Z,10.07
2019-04-14T23:53:33.482Z,13.43
2019-04-14T23:56:02.006Z,13.53
2019-04-14T23:58:30.523Z,10.33
